In Rescue
 
Open Full Screen Window  High Contrast Mode
Wind Gusting 15 knots
07
May 27, 2024 2:28 PM CDT
Weather Information
Wind Direction
  310 °
Wind Speed
  07 kt (8 mph)
Wind Gust
  15 kt (17 mph)
Variable Wind
290°
350°
Altimeter
29.78 in
Visibility
10 SM
Temperature
20° C
68° F
Dewpoint
01° C
34° F
Humidity
28%
Sky Condition
Scattered @ 8,000 ft
VFR

METAR KELO 271928Z AUTO 31007G15KT 290V350 10SM SCT080 20/01 A2978 RMK AO2 LTG DSNT S

FAA Disclaimer: The data displayed is for advisory purposes only and is not to be used for flight planning or operations.